Latest Weather Observations for Urandangi

IDQ60801

Issued at 1:32 pm EST Saturday 1 August 2015 (issued every 30 minutes, with the page automatically refreshed every 10 minutes)

About weather observations | Map of weather stations | Latest weather observations for QLD | Other Formats
Station Details ID: 037058 Name: URANDANGI AERODROME Lat: -21.60 Lon: 138.37 Height: 178.6 m
Data from the previous 72 hours. | See also: Recent months at Urandangi
Date/Time
EST
Temp
°C
App
Temp
°C
Dew
Point
Rel
Hum
%
Delta-T
°C
Wind Press
QNH
hPa
Press
MSL
hPa
Rain
since 9 am
mm
Dir
 
Spd
km/h
Gust
km/h
Spd
kts
Gust
kts
01/01:30pm 29.8 24.4 4.4 20 13.1 N 22 33 12 18 1017.2 1016.9 0.0
01/01:00pm 29.8 24.1 5.1 21 12.9 N 24 37 13 20 1017.9 1017.5 0.0
01/12:30pm 28.5 23.1 4.7 22 12.3 N 22 33 12 18 1018.5 1018.1 0.0
01/12:00pm 28.4 22.3 4.6 22 12.3 NNE 26 35 14 19 1018.8 1018.4 0.0
01/11:30am 27.4 21.1 3.8 22 11.9 NNE 26 35 14 19 1019.3 1018.9 0.0
01/11:00am 26.6 20.7 3.8 23 11.4 NNE 24 32 13 17 1019.5 1019.1 0.0
01/10:30am 25.4 19.0 3.4 24 10.9 NE 26 33 14 18 1019.5 1019.1 0.0
01/10:00am 24.4 19.1 3.1 25 10.4 NE 20 30 11 16 1019.4 1019.0 0.0
01/09:30am 23.5 18.8 3.4 27 9.8 NE 17 24 9 13 1019.4 1019.2 0.0
01/09:00am 21.5 17.6 3.2 30 8.8 NNE 13 17 7 9 1019.3 1019.1 0.0
01/08:30am 19.1 14.7 2.9 34 7.6 NE 15 19 8 10 1019.0 1018.8 0.0
01/08:00am 16.6 12.5 2.2 38 6.5 NE 13 15 7 8 1018.7 1018.5 0.0
01/07:30am 13.2 9.3 1.2 44 5.2 NE 11 13 6 7 1018.5 1018.3 0.0
01/07:00am 10.6 6.5 -0.5 46 4.5 NE 11 11 6 6 1018.3 1018.1 0.0
01/06:30am 8.7 4.3 -5.5 36 5.0 NE 9 11 5 6 1018.0 1017.8 0.0
01/06:00am 8.8 5.3 -6.2 34 5.2 ENE 4 4 2 2 1017.6 1017.5 0.0
01/05:30am 9.6 5.9 -4.4 37 5.1 E 6 6 3 3 1017.5 1017.4 0.0
01/05:00am 8.9 4.8 -6.5 33 5.3 ESE 7 9 4 5 1017.4 1017.3 0.0
01/04:30am 9.8 6.1 -4.5 36 5.2 ESE 6 7 3 4 1017.4 1017.3 0.0
01/04:00am 9.3 5.2 -6.5 32 5.4 ESE 7 9 4 5 1017.6 1017.5 0.0
01/03:30am 10.1 6.1 -5.8 32 5.6 ESE 7 7 4 4 1017.9 1017.7 0.0
01/03:00am 9.7 5.6 -7.0 30 5.7 ESE 7 9 4 5 1018.1 1017.9 0.0
01/02:30am 11.1 7.1 -5.8 30 6.1 ENE 7 7 4 4 1018.1 1017.9 0.0
01/02:00am 12.1 8.2 -4.9 30 6.3 E 7 7 4 4 1018.5 1018.3 0.0
01/01:30am 12.2 8.4 -5.3 29 6.4 ESE 6 6 3 3 1018.5 1018.3 0.0
01/01:00am 12.5 8.7 -5.5 28 6.6 SE 6 6 3 3 1018.7 1018.5 0.0
01/12:30am 12.6 8.8 -5.4 28 6.6 SE 6 6 3 3 1018.8 1018.6 0.0
01/12:00am 13.1 9.1 -5.4 27 6.8 SE 7 9 4 5 1018.9 1018.7 0.0
 
Date/Time
EST
Temp
°C
App
Temp
°C
Dew
Point
Rel
Hum
%
Delta-T
°C
Wind Press
QNH
hPa
Press
MSL
hPa
Rain
since 9 am
mm
Dir
 
Spd
km/h
Gust
km/h
Spd
kts
Gust
kts
31/11:30pm 14.4 10.5 -4.8 26 7.3 SE 7 9 4 5 1019.0 1018.8 0.0
31/11:00pm 14.8 11.1 -5.0 25 7.5 SE 6 6 3 3 1019.0 1018.8 0.0
31/10:30pm 14.9 11.5 -5.5 24 7.7 SE 4 4 2 2 1019.1 1018.9 0.0
31/10:00pm 15.9 12.5 -5.2 23 8.1 SE 4 6 2 3 1018.9 1018.7 0.0
31/09:30pm 16.8 13.1 -5.0 22 8.5 SE 6 6 3 3 1018.6 1018.4 0.0
31/09:00pm 17.6 13.7 -4.3 22 8.7 SSE 7 7 4 4 1018.6 1018.4 0.0
31/08:30pm 18.3 14.1 -3.8 22 9.0 SSE 9 9 5 5 1018.4 1018.2 0.0
31/08:00pm 19.7 15.5 -3.9 20 9.7 SSE 9 11 5 6 1018.1 1017.9 0.0
31/07:30pm 20.8 16.6 -3.6 19 10.2 SSE 9 9 5 5 1017.7 1017.6 0.0
31/07:00pm 22.1 17.9 -4.1 17 11.0 SSE 9 11 5 6 1017.4 1017.3 0.0
31/06:30pm 24.7 20.2 -3.6 15 12.2 SSE 11 13 6 7 1017.0 1016.8 0.0
31/06:00pm 27.3 22.3 -4.6 12 13.8 SSE 13 19 7 10 1017.0 1016.8 0.0
31/05:30pm 28.2 23.6 -3.9 12 14.2 SE 11 15 6 8 1016.8 1016.6 0.0
31/05:00pm 28.5 23.1 -4.8 11 14.5 SE 15 20 8 11 1016.8 1016.6 0.0
31/04:30pm 28.7 23.8 -3.5 12 14.4 ESE 13 20 7 11 1016.9 1016.7 0.0
31/04:00pm 28.8 23.5 -3.4 12 14.5 ESE 15 24 8 13 1017.1 1016.9 0.0
31/03:30pm 28.7 24.2 -3.5 12 14.4 SE 11 19 6 10 1017.4 1017.3 0.0
31/03:00pm 29.5 25.0 -2.9 12 14.7 ESE 11 19 6 10 1017.7 1017.6 0.0
31/02:30pm 28.8 23.7 -2.3 13 14.3 ESE 15 26 8 14 1018.2 1018.0 0.0
31/02:00pm 28.4 23.6 -2.6 13 14.1 E 13 24 7 13 1018.8 1018.6 0.0
31/01:30pm 28.0 23.8 -1.0 15 13.5 ESE 11 22 6 12 1019.3 1019.1 0.0
31/01:00pm 27.1 22.5 -0.9 16 13.0 ESE 13 20 7 11 1020.0 1019.8 0.0
31/12:30pm 26.5 22.4 -0.5 17 12.6 SE 11 22 6 12 1020.5 1020.3 0.0
31/12:00pm 26.0 21.0 -0.9 17 12.3 E 15 22 8 12 1021.0 1020.8 0.0
31/11:30am 25.6 20.2 -1.2 17 12.2 E 17 22 9 12 1021.4 1021.2 0.0
31/11:00am 24.7 19.3 -1.2 18 11.7 E 17 22 9 12 1021.7 1021.5 0.0
31/10:30am 22.9 17.9 -1.2 20 10.8 E 15 22 8 12 1021.9 1021.7 0.0
31/10:00am 21.2 15.6 -2.6 20 10.1 E 17 22 9 12 1022.0 1021.9 0.0
31/09:30am 18.3 14.6 -3.2 23 8.8 ESE 7 11 4 6 1022.2 1022.1 0.0
31/09:00am 15.3 11.5 -4.1 26 7.6 SE 7 11 4 6 1022.1 1022.0 0.0
31/08:30am 11.5 8.4 -5.9 29 6.3 ESE 2 4 1 2 1021.7 1021.5 0.0
31/08:00am 8.9 5.4 -6.5 33 5.3 ESE 4 6 2 3 1021.5 1021.3 0.0
31/07:30am 7.1 3.2 -6.9 36 4.6 ESE 6 6 3 3 1021.3 1021.1 0.0
31/07:00am 6.9 3.0 -6.8 37 4.5 SE 6 6 3 3 1021.2 1021.0 0.0
31/06:30am 6.5 2.5 -7.1 37 4.5 SE 6 7 3 4 1021.2 1021.0 0.0
31/06:00am 7.3 3.2 -6.8 36 4.7 SE 7 7 4 4 1020.8 1020.6 0.0
31/05:30am 7.5 3.0 -6.9 35 4.8 ESE 9 9 5 5 1020.6 1020.4 0.0
31/05:00am 7.6 3.1 -6.9 35 4.8 SE 9 9 5 5 1020.7 1020.5 0.0
31/04:30am 7.2 3.0 -7.2 35 4.8 SE 7 7 4 4 1020.7 1020.5 0.0
31/04:00am 8.4 4.3 -6.5 34 5.1 SE 7 9 4 5 1020.8 1020.6 0.0
31/03:30am 7.8 3.7 -7.1 34 5.0 SE 7 9 4 5 1021.0 1020.8 0.0
31/03:00am 8.6 4.5 -7.1 32 5.3 SE 7 9 4 5 1021.1 1020.9 0.0
31/02:30am 8.9 4.9 -5.7 35 5.1 SE 7 7 4 4 1021.2 1021.0 0.0
31/02:00am 9.0 4.5 -6.8 32 5.4 SE 9 9 5 5 1021.5 1021.3 0.0
31/01:30am 10.4 6.4 -5.6 32 5.7 SE 7 9 4 5 1021.5 1021.3 0.0
31/01:00am 10.6 6.6 -5.8 31 5.8 SE 7 7 4 4 1021.6 1021.4 0.0
31/12:30am 11.8 7.9 -4.8 31 6.1 SE 7 7 4 4 1021.5 1021.3 0.0
31/12:00am 12.0 8.1 -4.6 31 6.2 SE 7 7 4 4 1021.6 1021.4 0.0
 
Date/Time
EST
Temp
°C
App
Temp
°C
Dew
Point
Rel
Hum
%
Delta-T
°C
Wind Press
QNH
hPa
Press
MSL
hPa
Rain
since 9 am
mm
Dir
 
Spd
km/h
Gust
km/h
Spd
kts
Gust
kts
30/11:30pm 12.3 8.6 -4.8 30 6.4 SE 6 7 3 4 1021.8 1021.6 0.0
30/11:00pm 12.9 9.0 -4.2 30 6.5 SE 7 7 4 4 1022.0 1021.9 0.0
30/10:30pm 14.1 10.6 -3.2 30 6.8 SE 6 7 3 4 1021.9 1021.7 0.0
30/10:00pm 14.6 10.9 -3.2 29 7.0 SSE 7 9 4 5 1021.8 1021.6 0.0
30/09:30pm 15.4 10.9 -3.0 28 7.4 SSE 11 11 6 6 1021.7 1021.5 0.0
30/09:00pm 16.3 11.9 -2.7 27 7.7 SSE 11 11 6 6 1021.5 1021.3 0.0
30/08:30pm 17.2 13.1 -3.0 25 8.3 S 9 11 5 6 1021.2 1021.0 0.0
30/08:00pm 18.6 14.6 -2.3 24 8.8 SSE 9 9 5 5 1020.8 1020.6 0.0
30/07:30pm 19.7 15.4 -2.0 23 9.3 SSE 11 13 6 7 1020.5 1020.3 0.0
30/07:00pm 21.1 16.8 -2.0 21 10.0 SSE 11 11 6 6 1020.3 1020.1 0.0
30/06:30pm 23.1 19.2 -1.8 19 11.0 SSE 9 11 5 6 1020.0 1019.8 0.0
30/06:00pm 25.9 21.6 -1.8 16 12.5 SSE 11 19 6 10 1019.9 1019.7 0.0
30/05:30pm 26.9 22.6 -1.9 15 13.1 SSE 11 22 6 12 1019.8 1019.6 0.0
30/05:00pm 27.1 22.4 -1.7 15 13.1 SSE 13 22 7 12 1019.7 1019.5 0.0
30/04:30pm 27.4 23.1 -1.5 15 13.3 SSE 11 19 6 10 1019.7 1019.5 0.0
30/04:00pm 27.3 22.4 -0.7 16 13.0 SE 15 24 8 13 1019.8 1019.6 0.0
30/03:30pm 27.4 23.9 -1.5 15 13.3 ESE 7 19 4 10 1020.0 1019.8 0.0
30/03:00pm 27.9 24.7 -0.2 16 13.2 E 6 13 3 7 1020.2 1020.0 0.0
30/02:30pm 27.1 23.8 0.0 17 12.8 ESE 7 13 4 7 1020.6 1020.4 0.0
30/02:00pm 27.1 23.4 0.0 17 12.7 SSE 9 20 5 11 1021.1 1020.9 0.0
30/01:30pm 26.7 23.1 0.4 18 12.5 ENE 9 17 5 9 1021.8 1021.6 0.0
30/01:00pm 26.3 23.0 0.1 18 12.3 ESE 7 15 4 8 1022.3 1022.2 0.0
30/12:30pm 25.4 21.9 1.5 21 11.4 SE 9 19 5 10 1022.9 1022.8 0.0
30/12:00pm 25.0 21.5 1.2 21 11.2 ESE 9 13 5 7 1023.4 1023.3 0.0
30/11:30am 24.7 20.8 0.9 21 11.2 E 11 15 6 8 1023.8 1023.6 0.0
30/11:00am 23.6 18.9 0.7 22 10.6 E 15 19 8 10 1023.8 1023.6 0.0
30/10:30am 22.2 17.2 -1.1 21 10.4 E 15 20 8 11 1024.0 1023.8 0.0
30/10:00am 20.0 14.7 -3.6 20 9.7 ESE 15 20 8 11 1024.0 1023.8 0.0
30/09:30am 15.8 11.6 -7.7 19 8.6 ESE 7 9 4 5 1024.0 1023.8 0.0
30/09:00am 11.8 7.5 -9.2 22 7.0 ESE 7 9 4 5 1023.9 1023.7 0.0
30/08:30am 7.9 4.1 -10.4 26 5.6 ESE 4 6 2 3 1023.8 1023.6 0.0
30/08:00am 4.7 0.4 -11.0 31 4.5 ESE 6 7 3 4 1023.5 1023.4 0.0
30/07:30am 2.8 -1.7 -11.5 34 4.1 ESE 7 9 4 5 1023.3 1023.2 0.0
30/07:00am 2.7 -2.2 -11.6 34 4.1 ESE 9 11 5 6 1023.1 1023.0 0.0
30/06:30am 2.7 -2.2 -11.9 33 4.2 ESE 9 11 5 6 1022.9 1022.8 0.0
30/06:00am 3.1 -1.8 -11.2 34 4.2 ESE 9 9 5 5 1022.8 1022.7 0.0
30/05:30am 3.9 -0.5 -10.9 33 4.5 SE 7 7 4 4 1022.8 1022.7 0.0
30/05:00am 4.4 0.1 -10.8 32 4.4 SE 6 6 3 3 1022.8 1022.7 0.0
30/04:30am 5.1 0.9 -10.6 31 4.6 SE 6 7 3 4 1022.7 1022.6 0.0
30/04:00am 5.4 1.0 -10.8 30 4.7 SSE 7 7 4 4 1022.9 1022.8 0.0
30/03:30am 6.2 1.8 -10.1 30 4.9 SE 7 9 4 5 1023.0 1022.9 0.0
30/03:00am 6.5 2.1 -10.2 29 5.0 SE 7 7 4 4 1023.0 1022.9 0.0
30/02:30am 7.6 3.2 -9.7 28 5.4 SSE 7 9 4 5 1023.1 1023.0 0.0
30/02:00am 7.2 3.0 -10.5 27 5.3 SE 6 7 3 4 1023.4 1023.3 0.0
30/01:30am 7.4 3.2 -10.3 27 5.4 SE 6 6 3 3 1023.5 1023.4 0.0
30/01:00am 7.7 3.3 -10.1 27 5.5 SE 7 7 4 4 1023.5 1023.4 0.0
30/12:30am 8.8 4.0 -10.1 25 5.9 SE 9 11 5 6 1024.0 1023.8 0.0
30/12:00am 10.5 5.8 -9.7 23 6.5 SE 9 11 5 6 1024.2 1024.0 0.0
 
Date/Time
EST
Temp
°C
App
Temp
°C
Dew
Point
Rel
Hum
%
Delta-T
°C
Wind Press
QNH
hPa
Press
MSL
hPa
Rain
since 9 am
mm
Dir
 
Spd
km/h
Gust
km/h
Spd
kts
Gust
kts
29/11:30pm 11.7 6.9 -9.9 21 7.1 SE 9 11 5 6 1024.2 1024.0 0.0
29/11:00pm 12.2 7.1 -8.9 22 7.1 SE 11 15 6 8 1024.2 1024.0 0.0
29/10:30pm 11.8 6.7 -9.2 22 7.0 SSE 11 13 6 7 1024.1 1023.9 0.0
29/10:00pm 11.3 6.6 -9.6 22 6.8 SSE 9 11 5 6 1024.1 1023.9 0.0
29/09:30pm 11.8 7.4 -10.4 20 7.2 SSE 7 7 4 4 1024.0 1023.8 0.0
29/09:00pm 12.6 8.2 -9.7 20 7.4 SSE 7 7 4 4 1023.9 1023.7 0.0
29/08:30pm 13.4 9.0 -10.4 18 7.9 SSE 7 7 4 4 1023.5 1023.4 0.0
29/08:00pm 14.9 10.1 -9.9 17 8.5 SSE 9 9 5 5 1023.0 1022.9 0.0
29/07:30pm 16.5 11.4 -9.4 16 9.2 SSE 11 13 6 7 1022.6 1022.5 0.0
29/07:00pm 18.4 13.4 -8.7 15 9.9 SSE 11 11 6 6 1022.3 1022.2 0.0
29/06:30pm 20.9 15.8 -9.5 12 11.3 SE 11 13 6 7 1022.0 1021.9 0.0
29/06:00pm 24.0 17.7 -10.8 9 13.0 SE 17 24 9 13 1021.8 1021.6 0.0
29/05:30pm 25.0 18.3 -10.0 9 13.5 SE 19 26 10 14 1021.6 1021.4 0.0
29/05:00pm 25.4 18.8 -9.7 9 13.6 SE 19 28 10 15 1021.3 1021.1 0.0
29/04:30pm 25.7 19.5 -9.5 9 13.8 ESE 17 24 9 13 1021.3 1021.1 0.0
29/04:00pm 26.1 19.9 -9.2 9 13.9 ESE 17 26 9 14 1021.5 1021.3 0.0
29/03:30pm 25.7 19.9 -8.2 10 13.6 ESE 15 24 8 13 1021.8 1021.6 0.0
29/03:00pm 25.4 19.7 -7.2 11 13.2 SE 15 24 8 13 1022.2 1022.1 0.0
29/02:30pm 24.9 18.9 -6.4 12 12.9 ESE 17 24 9 13 1022.7 1022.6 0.0
29/02:00pm 24.6 18.3 -5.6 13 12.5 SE 19 26 10 14 1023.6 1023.5 0.0

Other Formats:

Comma delimited format used in spreadsheet applications
http://www.bom.gov.au/fwo/IDQ60801/IDQ60801.94344.axf

JavaScript Object Notation format (JSON) in row-major order
http://www.bom.gov.au/fwo/IDQ60801/IDQ60801.94344.json